sensor_id;sensor_type;location;lat;lon;timestamp;P1;durP1;ratioP1;P2;durP2;ratioP2
81355;SDS011;70811;51.152;-114.218;2023-07-09T00:02:10;0.00;;;0.00;;
81355;SDS011;70811;51.152;-114.218;2023-07-09T00:04:36;0.10;;;0.10;;
81355;SDS011;70811;51.152;-114.218;2023-07-09T00:07:03;0.00;;;0.00;;
81355;SDS011;70811;51.152;-114.218;2023-07-09T00:09:29;0.00;;;0.00;;
81355;SDS011;70811;51.152;-114.218;2023-07-09T00:11:55;0.00;;;0.00;;
81355;SDS011;70811;51.152;-114.218;2023-07-09T00:14:21;0.00;;;0.00;;
81355;SDS011;70811;51.152;-114.218;2023-07-09T00:16:47;0.00;;;0.00;;
81355;SDS011;70811;51.152;-114.218;2023-07-09T00:19:15;0.00;;;0.00;;
81355;SDS011;70811;51.152;-114.218;2023-07-09T00:21:42;0.10;;;0.00;;
81355;SDS011;70811;51.152;-114.218;2023-07-09T00:24:13;0.00;;;0.00;;
81355;SDS011;70811;51.152;-114.218;2023-07-09T00:26:39;0.00;;;0.00;;
81355;SDS011;70811;51.152;-114.218;2023-07-09T00:29:09;0.00;;;0.00;;
81355;SDS011;70811;51.152;-114.218;2023-07-09T00:31:36;0.00;;;0.00;;
81355;SDS011;70811;51.152;-114.218;2023-07-09T00:34:15;0.10;;;0.03;;
81355;SDS011;70811;51.152;-114.218;2023-07-09T00:36:42;0.00;;;0.00;;
81355;SDS011;70811;51.152;-114.218;2023-07-09T00:39:21;0.00;;;0.00;;
81355;SDS011;70811;51.152;-114.218;2023-07-09T00:41:48;0.10;;;0.00;;
81355;SDS011;70811;51.152;-114.218;2023-07-09T00:49:12;0.03;;;0.00;;
81355;SDS011;70811;51.152;-114.218;2023-07-09T00:51:43;0.90;;;0.00;;
81355;SDS011;70811;51.152;-114.218;2023-07-09T00:54:12;0.40;;;0.08;;
81355;SDS011;70811;51.152;-114.218;2023-07-09T00:56:40;0.20;;;0.10;;
81355;SDS011;70811;51.152;-114.218;2023-07-09T00:59:11;0.20;;;0.10;;
81355;SDS011;70811;51.152;-114.218;2023-07-09T01:01:38;0.00;;;0.00;;
81355;SDS011;70811;51.152;-114.218;2023-07-09T01:04:07;0.10;;;0.08;;
81355;SDS011;70811;51.152;-114.218;2023-07-09T01:06:53;0.10;;;0.00;;
81355;SDS011;70811;51.152;-114.218;2023-07-09T01:09:23;0.00;;;0.00;;
81355;SDS011;70811;51.152;-114.218;2023-07-09T01:11:49;0.00;;;0.00;;
81355;SDS011;70811;51.152;-114.218;2023-07-09T01:14:17;0.03;;;0.00;;
81355;SDS011;70811;51.152;-114.218;2023-07-09T01:16:47;0.28;;;0.00;;
81355;SDS011;70811;51.152;-114.218;2023-07-09T01:19:14;0.17;;;0.10;;
81355;SDS011;70811;51.152;-114.218;2023-07-09T01:21:42;0.05;;;0.05;;
81355;SDS011;70811;51.152;-114.218;2023-07-09T01:24:15;0.00;;;0.00;;
81355;SDS011;70811;51.152;-114.218;2023-07-09T01:26:41;0.10;;;0.00;;
81355;SDS011;70811;51.152;-114.218;2023-07-09T01:29:08;0.20;;;0.10;;
81355;SDS011;70811;51.152;-114.218;2023-07-09T01:31:34;0.20;;;0.10;;
81355;SDS011;70811;51.152;-114.218;2023-07-09T01:34:01;0.20;;;0.05;;
81355;SDS011;70811;51.152;-114.218;2023-07-09T01:36:27;0.00;;;0.00;;
81355;SDS011;70811;51.152;-114.218;2023-07-09T01:38:55;0.47;;;0.03;;
81355;SDS011;70811;51.152;-114.218;2023-07-09T01:41:21;0.00;;;0.00;;
81355;SDS011;70811;51.152;-114.218;2023-07-09T01:43:47;0.10;;;0.08;;
81355;SDS011;70811;51.152;-114.218;2023-07-09T01:46:14;0.05;;;0.00;;
81355;SDS011;70811;51.152;-114.218;2023-07-09T01:48:40;0.00;;;0.00;;
81355;SDS011;70811;51.152;-114.218;2023-07-09T01:51:10;0.00;;;0.00;;
81355;SDS011;70811;51.152;-114.218;2023-07-09T01:53:37;0.20;;;0.10;;
81355;SDS011;70811;51.152;-114.218;2023-07-09T01:56:04;0.03;;;0.03;;
81355;SDS011;70811;51.152;-114.218;2023-07-09T01:58:33;0.20;;;0.08;;
81355;SDS011;70811;51.152;-114.218;2023-07-09T02:00:59;0.35;;;0.10;;
81355;SDS011;70811;51.152;-114.218;2023-07-09T02:03:28;0.00;;;0.00;;
81355;SDS011;70811;51.152;-114.218;2023-07-09T02:05:54;0.10;;;0.00;;
81355;SDS011;70811;51.152;-114.218;2023-07-09T02:08:20;0.00;;;0.00;;
81355;SDS011;70811;51.152;-114.218;2023-07-09T02:10:49;0.10;;;0.10;;
81355;SDS011;70811;51.152;-114.218;2023-07-09T02:13:15;0.00;;;0.00;;
81355;SDS011;70811;51.152;-114.218;2023-07-09T02:15:44;0.08;;;0.00;;
81355;SDS011;70811;51.152;-114.218;2023-07-09T02:18:10;0.32;;;0.10;;
81355;SDS011;70811;51.152;-114.218;2023-07-09T02:20:37;0.00;;;0.00;;
81355;SDS011;70811;51.152;-114.218;2023-07-09T02:23:03;0.00;;;0.00;;
81355;SDS011;70811;51.152;-114.218;2023-07-09T02:25:29;0.03;;;0.00;;
81355;SDS011;70811;51.152;-114.218;2023-07-09T02:27:55;0.00;;;0.00;;
81355;SDS011;70811;51.152;-114.218;2023-07-09T02:30:21;0.25;;;0.10;;
81355;SDS011;70811;51.152;-114.218;2023-07-09T02:32:47;0.00;;;0.00;;
81355;SDS011;70811;51.152;-114.218;2023-07-09T02:35:12;0.20;;;0.00;;
81355;SDS011;70811;51.152;-114.218;2023-07-09T02:37:38;0.00;;;0.00;;
81355;SDS011;70811;51.152;-114.218;2023-07-09T02:40:05;0.10;;;0.10;;
81355;SDS011;70811;51.152;-114.218;2023-07-09T02:42:31;0.00;;;0.00;;
81355;SDS011;70811;51.152;-114.218;2023-07-09T02:44:56;0.00;;;0.00;;
81355;SDS011;70811;51.152;-114.218;2023-07-09T02:47:22;0.00;;;0.00;;
81355;SDS011;70811;51.152;-114.218;2023-07-09T02:49:48;0.00;;;0.00;;
81355;SDS011;70811;51.152;-114.218;2023-07-09T02:52:14;0.57;;;0.00;;
81355;SDS011;70811;51.152;-114.218;2023-07-09T02:54:41;0.00;;;0.00;;
81355;SDS011;70811;51.152;-114.218;2023-07-09T02:57:07;0.15;;;0.00;;
81355;SDS011;70811;51.152;-114.218;2023-07-09T02:59:32;0.00;;;0.00;;
81355;SDS011;70811;51.152;-114.218;2023-07-09T03:01:59;0.98;;;0.00;;
81355;SDS011;70811;51.152;-114.218;2023-07-09T03:04:25;0.00;;;0.00;;
81355;SDS011;70811;51.152;-114.218;2023-07-09T03:06:51;0.20;;;0.10;;
81355;SDS011;70811;51.152;-114.218;2023-07-09T03:09:18;0.00;;;0.00;;
81355;SDS011;70811;51.152;-114.218;2023-07-09T03:11:44;0.10;;;0.00;;
81355;SDS011;70811;51.152;-114.218;2023-07-09T03:14:09;0.00;;;0.00;;
81355;SDS011;70811;51.152;-114.218;2023-07-09T03:16:35;0.00;;;0.00;;
81355;SDS011;70811;51.152;-114.218;2023-07-09T03:19:02;0.00;;;0.00;;
81355;SDS011;70811;51.152;-114.218;2023-07-09T03:21:29;0.00;;;0.00;;
81355;SDS011;70811;51.152;-114.218;2023-07-09T03:23:56;0.95;;;0.08;;
81355;SDS011;70811;51.152;-114.218;2023-07-09T03:26:22;0.20;;;0.10;;
81355;SDS011;70811;51.152;-114.218;2023-07-09T03:28:48;0.00;;;0.00;;
81355;SDS011;70811;51.152;-114.218;2023-07-09T03:31:14;0.10;;;0.00;;
81355;SDS011;70811;51.152;-114.218;2023-07-09T03:33:40;0.10;;;0.00;;
81355;SDS011;70811;51.152;-114.218;2023-07-09T03:36:06;0.10;;;0.00;;
81355;SDS011;70811;51.152;-114.218;2023-07-09T03:38:32;0.00;;;0.00;;
81355;SDS011;70811;51.152;-114.218;2023-07-09T03:40:58;0.10;;;0.00;;
81355;SDS011;70811;51.152;-114.218;2023-07-09T03:43:24;0.00;;;0.00;;
81355;SDS011;70811;51.152;-114.218;2023-07-09T03:45:50;0.00;;;0.00;;
81355;SDS011;70811;51.152;-114.218;2023-07-09T03:48:18;0.20;;;0.08;;
81355;SDS011;70811;51.152;-114.218;2023-07-09T03:50:45;0.00;;;0.00;;
81355;SDS011;70811;51.152;-114.218;2023-07-09T03:53:12;0.30;;;0.00;;
81355;SDS011;70811;51.152;-114.218;2023-07-09T03:55:38;0.00;;;0.00;;
81355;SDS011;70811;51.152;-114.218;2023-07-09T03:58:04;0.00;;;0.00;;
81355;SDS011;70811;51.152;-114.218;2023-07-09T04:00:31;0.10;;;0.00;;
81355;SDS011;70811;51.152;-114.218;2023-07-09T04:02:57;0.00;;;0.00;;
81355;SDS011;70811;51.152;-114.218;2023-07-09T04:05:23;0.00;;;0.00;;
81355;SDS011;70811;51.152;-114.218;2023-07-09T04:07:49;0.00;;;0.00;;
81355;SDS011;70811;51.152;-114.218;2023-07-09T04:10:16;0.05;;;0.00;;
81355;SDS011;70811;51.152;-114.218;2023-07-09T04:12:42;0.30;;;0.00;;
81355;SDS011;70811;51.152;-114.218;2023-07-09T04:15:08;0.10;;;0.00;;
81355;SDS011;70811;51.152;-114.218;2023-07-09T04:17:34;0.00;;;0.00;;
81355;SDS011;70811;51.152;-114.218;2023-07-09T04:20:01;0.30;;;0.00;;
81355;SDS011;70811;51.152;-114.218;2023-07-09T04:22:31;0.08;;;0.00;;
81355;SDS011;70811;51.152;-114.218;2023-07-09T04:24:57;0.10;;;0.00;;
81355;SDS011;70811;51.152;-114.218;2023-07-09T04:27:24;0.00;;;0.00;;
81355;SDS011;70811;51.152;-114.218;2023-07-09T04:29:53;0.08;;;0.00;;
81355;SDS011;70811;51.152;-114.218;2023-07-09T04:32:19;0.10;;;0.00;;
81355;SDS011;70811;51.152;-114.218;2023-07-09T04:34:45;0.15;;;0.00;;
81355;SDS011;70811;51.152;-114.218;2023-07-09T04:37:11;0.28;;;0.05;;
81355;SDS011;70811;51.152;-114.218;2023-07-09T04:39:38;0.10;;;0.00;;
81355;SDS011;70811;51.152;-114.218;2023-07-09T04:42:04;0.10;;;0.00;;
81355;SDS011;70811;51.152;-114.218;2023-07-09T04:44:30;0.00;;;0.00;;
81355;SDS011;70811;51.152;-114.218;2023-07-09T04:46:56;0.10;;;0.00;;
81355;SDS011;70811;51.152;-114.218;2023-07-09T04:49:22;0.10;;;0.00;;
81355;SDS011;70811;51.152;-114.218;2023-07-09T04:51:48;0.00;;;0.00;;
81355;SDS011;70811;51.152;-114.218;2023-07-09T04:56:40;0.00;;;0.00;;
81355;SDS011;70811;51.152;-114.218;2023-07-09T04:59:12;0.00;;;0.00;;
81355;SDS011;70811;51.152;-114.218;2023-07-09T05:01:38;0.00;;;0.00;;
81355;SDS011;70811;51.152;-114.218;2023-07-09T05:04:04;0.00;;;0.00;;
81355;SDS011;70811;51.152;-114.218;2023-07-09T05:06:30;0.00;;;0.00;;
81355;SDS011;70811;51.152;-114.218;2023-07-09T05:08:56;0.10;;;0.00;;
81355;SDS011;70811;51.152;-114.218;2023-07-09T05:11:22;0.03;;;0.00;;
81355;SDS011;70811;51.152;-114.218;2023-07-09T05:13:47;0.00;;;0.00;;
81355;SDS011;70811;51.152;-114.218;2023-07-09T05:16:13;0.00;;;0.00;;
81355;SDS011;70811;51.152;-114.218;2023-07-09T05:18:39;0.00;;;0.00;;
81355;SDS011;70811;51.152;-114.218;2023-07-09T05:21:05;0.05;;;0.00;;
81355;SDS011;70811;51.152;-114.218;2023-07-09T05:23:31;0.10;;;0.03;;
81355;SDS011;70811;51.152;-114.218;2023-07-09T05:28:22;0.20;;;0.10;;
81355;SDS011;70811;51.152;-114.218;2023-07-09T05:30:48;0.90;;;0.00;;
81355;SDS011;70811;51.152;-114.218;2023-07-09T05:33:17;0.70;;;0.10;;
81355;SDS011;70811;51.152;-114.218;2023-07-09T05:35:44;0.43;;;0.20;;
81355;SDS011;70811;51.152;-114.218;2023-07-09T05:38:10;0.30;;;0.05;;
81355;SDS011;70811;51.152;-114.218;2023-07-09T05:40:36;0.20;;;0.00;;
81355;SDS011;70811;51.152;-114.218;2023-07-09T05:43:02;0.25;;;0.00;;
81355;SDS011;70811;51.152;-114.218;2023-07-09T05:45:28;0.08;;;0.08;;
81355;SDS011;70811;51.152;-114.218;2023-07-09T05:47:54;0.00;;;0.00;;
81355;SDS011;70811;51.152;-114.218;2023-07-09T05:50:20;1.95;;;0.03;;
81355;SDS011;70811;51.152;-114.218;2023-07-09T05:52:46;0.98;;;0.00;;
81355;SDS011;70811;51.152;-114.218;2023-07-09T05:55:11;0.20;;;0.00;;
81355;SDS011;70811;51.152;-114.218;2023-07-09T05:57:38;0.00;;;0.00;;
81355;SDS011;70811;51.152;-114.218;2023-07-09T06:00:04;0.20;;;0.00;;
81355;SDS011;70811;51.152;-114.218;2023-07-09T06:02:30;0.00;;;0.00;;
81355;SDS011;70811;51.152;-114.218;2023-07-09T06:04:57;0.00;;;0.00;;
81355;SDS011;70811;51.152;-114.218;2023-07-09T06:07:23;0.00;;;0.00;;
81355;SDS011;70811;51.152;-114.218;2023-07-09T06:09:49;0.00;;;0.00;;
81355;SDS011;70811;51.152;-114.218;2023-07-09T06:12:15;0.00;;;0.00;;
81355;SDS011;70811;51.152;-114.218;2023-07-09T06:14:42;0.73;;;0.10;;
81355;SDS011;70811;51.152;-114.218;2023-07-09T06:17:08;0.00;;;0.00;;
81355;SDS011;70811;51.152;-114.218;2023-07-09T06:19:34;0.10;;;0.00;;
81355;SDS011;70811;51.152;-114.218;2023-07-09T06:22:00;0.30;;;0.08;;
81355;SDS011;70811;51.152;-114.218;2023-07-09T06:24:26;0.00;;;0.00;;
81355;SDS011;70811;51.152;-114.218;2023-07-09T06:26:52;0.00;;;0.00;;
81355;SDS011;70811;51.152;-114.218;2023-07-09T06:29:18;0.10;;;0.00;;
81355;SDS011;70811;51.152;-114.218;2023-07-09T06:31:45;0.30;;;0.00;;
81355;SDS011;70811;51.152;-114.218;2023-07-09T06:34:10;0.08;;;0.00;;
81355;SDS011;70811;51.152;-114.218;2023-07-09T06:36:37;1.10;;;0.10;;
81355;SDS011;70811;51.152;-114.218;2023-07-09T06:39:03;0.00;;;0.00;;
81355;SDS011;70811;51.152;-114.218;2023-07-09T06:41:29;0.15;;;0.00;;
81355;SDS011;70811;51.152;-114.218;2023-07-09T06:43:55;0.20;;;0.10;;
81355;SDS011;70811;51.152;-114.218;2023-07-09T06:48:46;0.00;;;0.00;;
81355;SDS011;70811;51.152;-114.218;2023-07-09T06:51:12;0.00;;;0.00;;
81355;SDS011;70811;51.152;-114.218;2023-07-09T06:53:38;0.00;;;0.00;;
81355;SDS011;70811;51.152;-114.218;2023-07-09T06:56:05;0.00;;;0.00;;
81355;SDS011;70811;51.152;-114.218;2023-07-09T06:58:31;0.10;;;0.00;;
81355;SDS011;70811;51.152;-114.218;2023-07-09T07:01:00;0.00;;;0.00;;
81355;SDS011;70811;51.152;-114.218;2023-07-09T07:03:26;0.10;;;0.05;;
81355;SDS011;70811;51.152;-114.218;2023-07-09T07:05:53;0.00;;;0.00;;
81355;SDS011;70811;51.152;-114.218;2023-07-09T07:08:20;0.10;;;0.00;;
81355;SDS011;70811;51.152;-114.218;2023-07-09T07:10:47;0.15;;;0.00;;
81355;SDS011;70811;51.152;-114.218;2023-07-09T07:13:13;0.00;;;0.00;;
81355;SDS011;70811;51.152;-114.218;2023-07-09T07:15:39;0.30;;;0.00;;
81355;SDS011;70811;51.152;-114.218;2023-07-09T07:18:06;0.00;;;0.00;;
81355;SDS011;70811;51.152;-114.218;2023-07-09T07:20:32;0.00;;;0.00;;
81355;SDS011;70811;51.152;-114.218;2023-07-09T07:22:58;0.03;;;0.00;;
81355;SDS011;70811;51.152;-114.218;2023-07-09T07:25:24;0.57;;;0.00;;
81355;SDS011;70811;51.152;-114.218;2023-07-09T07:27:50;0.00;;;0.00;;
81355;SDS011;70811;51.152;-114.218;2023-07-09T07:30:17;0.00;;;0.00;;
81355;SDS011;70811;51.152;-114.218;2023-07-09T07:32:44;0.00;;;0.00;;
81355;SDS011;70811;51.152;-114.218;2023-07-09T07:35:10;0.32;;;0.00;;
81355;SDS011;70811;51.152;-114.218;2023-07-09T07:37:36;0.00;;;0.00;;
81355;SDS011;70811;51.152;-114.218;2023-07-09T07:42:27;0.08;;;0.00;;
81355;SDS011;70811;51.152;-114.218;2023-07-09T07:44:53;0.05;;;0.00;;
81355;SDS011;70811;51.152;-114.218;2023-07-09T07:47:19;0.10;;;0.00;;
81355;SDS011;70811;51.152;-114.218;2023-07-09T07:49:45;0.00;;;0.00;;
81355;SDS011;70811;51.152;-114.218;2023-07-09T07:52:11;0.00;;;0.00;;
81355;SDS011;70811;51.152;-114.218;2023-07-09T07:54:37;0.00;;;0.00;;
81355;SDS011;70811;51.152;-114.218;2023-07-09T07:57:03;0.00;;;0.00;;
81355;SDS011;70811;51.152;-114.218;2023-07-09T07:59:30;0.75;;;0.15;;
81355;SDS011;70811;51.152;-114.218;2023-07-09T08:01:58;0.10;;;0.00;;
81355;SDS011;70811;51.152;-114.218;2023-07-09T08:04:24;0.10;;;0.00;;
81355;SDS011;70811;51.152;-114.218;2023-07-09T08:09:15;0.40;;;0.05;;
81355;SDS011;70811;51.152;-114.218;2023-07-09T08:11:42;0.00;;;0.00;;
81355;SDS011;70811;51.152;-114.218;2023-07-09T08:14:07;0.00;;;0.00;;
81355;SDS011;70811;51.152;-114.218;2023-07-09T08:16:33;0.00;;;0.00;;
81355;SDS011;70811;51.152;-114.218;2023-07-09T08:18:59;0.05;;;0.03;;
81355;SDS011;70811;51.152;-114.218;2023-07-09T08:21:25;0.10;;;0.00;;
81355;SDS011;70811;51.152;-114.218;2023-07-09T08:23:51;0.03;;;0.00;;
81355;SDS011;70811;51.152;-114.218;2023-07-09T08:26:17;0.10;;;0.00;;
81355;SDS011;70811;51.152;-114.218;2023-07-09T08:28:43;0.00;;;0.00;;
81355;SDS011;70811;51.152;-114.218;2023-07-09T08:31:09;0.68;;;0.00;;
81355;SDS011;70811;51.152;-114.218;2023-07-09T08:33:35;0.05;;;0.00;;
81355;SDS011;70811;51.152;-114.218;2023-07-09T08:36:01;0.75;;;0.00;;
81355;SDS011;70811;51.152;-114.218;2023-07-09T08:38:27;0.10;;;0.00;;
81355;SDS011;70811;51.152;-114.218;2023-07-09T08:43:39;0.05;;;0.03;;
81355;SDS011;70811;51.152;-114.218;2023-07-09T08:48:49;0.30;;;0.00;;
81355;SDS011;70811;51.152;-114.218;2023-07-09T08:51:26;0.10;;;0.00;;
81355;SDS011;70811;51.152;-114.218;2023-07-09T08:53:54;0.08;;;0.00;;
81355;SDS011;70811;51.152;-114.218;2023-07-09T08:56:22;0.00;;;0.00;;
81355;SDS011;70811;51.152;-114.218;2023-07-09T08:58:49;0.08;;;0.00;;
81355;SDS011;70811;51.152;-114.218;2023-07-09T09:01:26;0.05;;;0.05;;
81355;SDS011;70811;51.152;-114.218;2023-07-09T09:03:55;0.00;;;0.00;;
81355;SDS011;70811;51.152;-114.218;2023-07-09T09:06:28;0.13;;;0.00;;
81355;SDS011;70811;51.152;-114.218;2023-07-09T09:09:05;0.08;;;0.00;;
81355;SDS011;70811;51.152;-114.218;2023-07-09T09:14:06;0.85;;;0.20;;
81355;SDS011;70811;51.152;-114.218;2023-07-09T09:16:35;0.00;;;0.00;;
81355;SDS011;70811;51.152;-114.218;2023-07-09T09:19:01;0.00;;;0.00;;
81355;SDS011;70811;51.152;-114.218;2023-07-09T09:23:57;0.85;;;0.08;;
81355;SDS011;70811;51.152;-114.218;2023-07-09T09:26:31;0.17;;;0.08;;
81355;SDS011;70811;51.152;-114.218;2023-07-09T09:28:57;0.77;;;0.10;;
81355;SDS011;70811;51.152;-114.218;2023-07-09T09:31:24;0.08;;;0.08;;
81355;SDS011;70811;51.152;-114.218;2023-07-09T09:33:51;0.15;;;0.10;;
81355;SDS011;70811;51.152;-114.218;2023-07-09T09:36:23;0.00;;;0.00;;
81355;SDS011;70811;51.152;-114.218;2023-07-09T09:38:50;0.20;;;0.10;;
81355;SDS011;70811;51.152;-114.218;2023-07-09T09:41:18;0.10;;;0.10;;
81355;SDS011;70811;51.152;-114.218;2023-07-09T09:43:45;0.10;;;0.00;;
81355;SDS011;70811;51.152;-114.218;2023-07-09T09:46:21;0.43;;;0.00;;
81355;SDS011;70811;51.152;-114.218;2023-07-09T09:48:48;0.52;;;0.10;;
81355;SDS011;70811;51.152;-114.218;2023-07-09T09:51:15;0.20;;;0.00;;
81355;SDS011;70811;51.152;-114.218;2023-07-09T09:53:44;0.10;;;0.00;;
81355;SDS011;70811;51.152;-114.218;2023-07-09T09:56:14;0.57;;;0.13;;
81355;SDS011;70811;51.152;-114.218;2023-07-09T09:58:41;0.85;;;0.00;;
81355;SDS011;70811;51.152;-114.218;2023-07-09T10:01:17;0.22;;;0.10;;
81355;SDS011;70811;51.152;-114.218;2023-07-09T10:03:43;0.08;;;0.05;;
81355;SDS011;70811;51.152;-114.218;2023-07-09T10:06:19;0.20;;;0.10;;
81355;SDS011;70811;51.152;-114.218;2023-07-09T10:08:50;1.75;;;0.00;;
81355;SDS011;70811;51.152;-114.218;2023-07-09T10:13:43;0.05;;;0.00;;
81355;SDS011;70811;51.152;-114.218;2023-07-09T10:24:12;0.32;;;0.10;;
81355;SDS011;70811;51.152;-114.218;2023-07-09T10:26:47;0.00;;;0.00;;
81355;SDS011;70811;51.152;-114.218;2023-07-09T10:32:09;0.10;;;0.10;;
81355;SDS011;70811;51.152;-114.218;2023-07-09T10:39:57;1.10;;;0.10;;
81355;SDS011;70811;51.152;-114.218;2023-07-09T10:42:26;0.15;;;0.10;;
81355;SDS011;70811;51.152;-114.218;2023-07-09T10:44:55;0.10;;;0.10;;
81355;SDS011;70811;51.152;-114.218;2023-07-09T10:47:41;1.08;;;0.10;;
81355;SDS011;70811;51.152;-114.218;2023-07-09T10:50:20;0.55;;;0.20;;
81355;SDS011;70811;51.152;-114.218;2023-07-09T10:52:49;0.40;;;0.10;;
81355;SDS011;70811;51.152;-114.218;2023-07-09T10:55:18;0.17;;;0.10;;
81355;SDS011;70811;51.152;-114.218;2023-07-09T11:00:16;0.40;;;0.10;;
81355;SDS011;70811;51.152;-114.218;2023-07-09T11:02:43;0.35;;;0.10;;
81355;SDS011;70811;51.152;-114.218;2023-07-09T11:05:10;0.28;;;0.20;;
81355;SDS011;70811;51.152;-114.218;2023-07-09T11:10:22;4.75;;;0.20;;
81355;SDS011;70811;51.152;-114.218;2023-07-09T11:12:55;0.20;;;0.10;;
81355;SDS011;70811;51.152;-114.218;2023-07-09T11:15:36;0.28;;;0.10;;
81355;SDS011;70811;51.152;-114.218;2023-07-09T11:18:07;0.10;;;0.10;;
81355;SDS011;70811;51.152;-114.218;2023-07-09T11:20:34;0.10;;;0.10;;
81355;SDS011;70811;51.152;-114.218;2023-07-09T11:23:04;0.40;;;0.10;;
81355;SDS011;70811;51.152;-114.218;2023-07-09T11:25:39;1.00;;;0.17;;
81355;SDS011;70811;51.152;-114.218;2023-07-09T11:28:06;0.10;;;0.10;;
81355;SDS011;70811;51.152;-114.218;2023-07-09T11:30:32;0.50;;;0.10;;
81355;SDS011;70811;51.152;-114.218;2023-07-09T11:33:00;0.43;;;0.20;;
81355;SDS011;70811;51.152;-114.218;2023-07-09T11:35:27;0.40;;;0.20;;
81355;SDS011;70811;51.152;-114.218;2023-07-09T11:37:54;0.15;;;0.10;;
81355;SDS011;70811;51.152;-114.218;2023-07-09T11:40:21;0.25;;;0.20;;
81355;SDS011;70811;51.152;-114.218;2023-07-09T11:42:48;0.20;;;0.10;;
81355;SDS011;70811;51.152;-114.218;2023-07-09T11:45:16;1.27;;;0.20;;
81355;SDS011;70811;51.152;-114.218;2023-07-09T11:47:45;0.20;;;0.10;;
81355;SDS011;70811;51.152;-114.218;2023-07-09T11:50:26;0.40;;;0.20;;
81355;SDS011;70811;51.152;-114.218;2023-07-09T11:53:03;0.38;;;0.15;;
81355;SDS011;70811;51.152;-114.218;2023-07-09T11:55:41;0.10;;;0.10;;
81355;SDS011;70811;51.152;-114.218;2023-07-09T11:58:09;0.73;;;0.30;;
81355;SDS011;70811;51.152;-114.218;2023-07-09T12:00:45;0.10;;;0.10;;
81355;SDS011;70811;51.152;-114.218;2023-07-09T12:03:15;0.30;;;0.10;;
81355;SDS011;70811;51.152;-114.218;2023-07-09T12:05:46;0.60;;;0.20;;
81355;SDS011;70811;51.152;-114.218;2023-07-09T12:08:14;0.30;;;0.22;;
81355;SDS011;70811;51.152;-114.218;2023-07-09T12:10:40;0.40;;;0.13;;
81355;SDS011;70811;51.152;-114.218;2023-07-09T12:13:09;0.32;;;0.20;;
81355;SDS011;70811;51.152;-114.218;2023-07-09T12:15:37;0.10;;;0.10;;
81355;SDS011;70811;51.152;-114.218;2023-07-09T12:18:08;0.22;;;0.20;;
81355;SDS011;70811;51.152;-114.218;2023-07-09T12:20:36;0.50;;;0.20;;
81355;SDS011;70811;51.152;-114.218;2023-07-09T12:23:15;0.32;;;0.20;;
81355;SDS011;70811;51.152;-114.218;2023-07-09T12:25:46;0.43;;;0.20;;
81355;SDS011;70811;51.152;-114.218;2023-07-09T12:28:13;2.17;;;0.20;;
81355;SDS011;70811;51.152;-114.218;2023-07-09T12:30:40;0.20;;;0.15;;
81355;SDS011;70811;51.152;-114.218;2023-07-09T12:33:12;0.32;;;0.20;;
81355;SDS011;70811;51.152;-114.218;2023-07-09T12:35:41;0.30;;;0.20;;
81355;SDS011;70811;51.152;-114.218;2023-07-09T12:40:32;0.38;;;0.17;;
81355;SDS011;70811;51.152;-114.218;2023-07-09T12:43:00;0.30;;;0.20;;
81355;SDS011;70811;51.152;-114.218;2023-07-09T12:45:27;0.20;;;0.10;;
81355;SDS011;70811;51.152;-114.218;2023-07-09T12:47:53;0.30;;;0.20;;
81355;SDS011;70811;51.152;-114.218;2023-07-09T12:50:32;0.10;;;0.10;;
81355;SDS011;70811;51.152;-114.218;2023-07-09T12:55:44;0.32;;;0.20;;
81355;SDS011;70811;51.152;-114.218;2023-07-09T12:58:13;1.00;;;0.20;;
81355;SDS011;70811;51.152;-114.218;2023-07-09T13:00:42;0.60;;;0.30;;
81355;SDS011;70811;51.152;-114.218;2023-07-09T13:03:17;0.30;;;0.10;;
81355;SDS011;70811;51.152;-114.218;2023-07-09T13:05:57;0.47;;;0.20;;
81355;SDS011;70811;51.152;-114.218;2023-07-09T13:08:27;0.40;;;0.30;;
81355;SDS011;70811;51.152;-114.218;2023-07-09T13:10:54;0.57;;;0.35;;
81355;SDS011;70811;51.152;-114.218;2023-07-09T13:13:22;0.20;;;0.10;;
81355;SDS011;70811;51.152;-114.218;2023-07-09T13:15:52;0.47;;;0.20;;
81355;SDS011;70811;51.152;-114.218;2023-07-09T13:18:22;0.47;;;0.22;;
81355;SDS011;70811;51.152;-114.218;2023-07-09T13:20:49;0.30;;;0.20;;
81355;SDS011;70811;51.152;-114.218;2023-07-09T13:23:16;0.60;;;0.30;;
81355;SDS011;70811;51.152;-114.218;2023-07-09T13:25:42;0.80;;;0.20;;
81355;SDS011;70811;51.152;-114.218;2023-07-09T13:28:11;0.60;;;0.22;;
81355;SDS011;70811;51.152;-114.218;2023-07-09T13:30:40;0.50;;;0.30;;
81355;SDS011;70811;51.152;-114.218;2023-07-09T13:33:09;0.28;;;0.20;;
81355;SDS011;70811;51.152;-114.218;2023-07-09T13:35:36;0.30;;;0.13;;
81355;SDS011;70811;51.152;-114.218;2023-07-09T13:38:02;0.50;;;0.30;;
81355;SDS011;70811;51.152;-114.218;2023-07-09T13:40:31;0.20;;;0.20;;
81355;SDS011;70811;51.152;-114.218;2023-07-09T13:42:56;0.20;;;0.15;;
81355;SDS011;70811;51.152;-114.218;2023-07-09T13:47:48;0.38;;;0.20;;
81355;SDS011;70811;51.152;-114.218;2023-07-09T13:50:16;0.50;;;0.30;;
81355;SDS011;70811;51.152;-114.218;2023-07-09T13:52:41;0.50;;;0.30;;
81355;SDS011;70811;51.152;-114.218;2023-07-09T13:55:25;0.40;;;0.25;;
81355;SDS011;70811;51.152;-114.218;2023-07-09T13:57:51;0.47;;;0.30;;
81355;SDS011;70811;51.152;-114.218;2023-07-09T14:00:18;0.25;;;0.20;;
81355;SDS011;70811;51.152;-114.218;2023-07-09T14:05:10;0.17;;;0.10;;
81355;SDS011;70811;51.152;-114.218;2023-07-09T14:07:38;0.40;;;0.20;;
81355;SDS011;70811;51.152;-114.218;2023-07-09T14:10:05;0.50;;;0.22;;
81355;SDS011;70811;51.152;-114.218;2023-07-09T14:12:32;0.40;;;0.28;;
81355;SDS011;70811;51.152;-114.218;2023-07-09T14:15:01;0.30;;;0.20;;
81355;SDS011;70811;51.152;-114.218;2023-07-09T14:17:27;0.60;;;0.30;;
81355;SDS011;70811;51.152;-114.218;2023-07-09T14:19:53;0.57;;;0.30;;
81355;SDS011;70811;51.152;-114.218;2023-07-09T14:24:48;0.40;;;0.22;;
81355;SDS011;70811;51.152;-114.218;2023-07-09T14:27:14;0.47;;;0.28;;
81355;SDS011;70811;51.152;-114.218;2023-07-09T14:29:40;0.60;;;0.30;;
81355;SDS011;70811;51.152;-114.218;2023-07-09T14:32:09;0.28;;;0.10;;
81355;SDS011;70811;51.152;-114.218;2023-07-09T14:34:48;0.32;;;0.17;;
81355;SDS011;70811;51.152;-114.218;2023-07-09T14:37:13;0.28;;;0.17;;
81355;SDS011;70811;51.152;-114.218;2023-07-09T14:39:39;0.40;;;0.30;;
81355;SDS011;70811;51.152;-114.218;2023-07-09T14:44:31;0.38;;;0.22;;
81355;SDS011;70811;51.152;-114.218;2023-07-09T14:46:58;0.15;;;0.10;;
81355;SDS011;70811;51.152;-114.218;2023-07-09T14:49:24;0.28;;;0.20;;
81355;SDS011;70811;51.152;-114.218;2023-07-09T14:51:51;0.45;;;0.30;;
81355;SDS011;70811;51.152;-114.218;2023-07-09T14:54:25;0.40;;;0.20;;
81355;SDS011;70811;51.152;-114.218;2023-07-09T14:56:53;0.47;;;0.22;;
81355;SDS011;70811;51.152;-114.218;2023-07-09T14:59:19;0.20;;;0.20;;
81355;SDS011;70811;51.152;-114.218;2023-07-09T15:01:45;0.52;;;0.20;;
81355;SDS011;70811;51.152;-114.218;2023-07-09T15:06:47;0.35;;;0.30;;
81355;SDS011;70811;51.152;-114.218;2023-07-09T15:09:13;0.38;;;0.20;;
81355;SDS011;70811;51.152;-114.218;2023-07-09T15:11:40;0.20;;;0.20;;
81355;SDS011;70811;51.152;-114.218;2023-07-09T15:14:12;0.20;;;0.20;;
81355;SDS011;70811;51.152;-114.218;2023-07-09T15:16:38;0.30;;;0.13;;
81355;SDS011;70811;51.152;-114.218;2023-07-09T15:19:08;0.10;;;0.10;;
81355;SDS011;70811;51.152;-114.218;2023-07-09T15:21:37;0.40;;;0.20;;